sensor_id;sensor_type;location;lat;lon;timestamp;pressure;altitude;pressure_sealevel;temperature;humidity
59859;BME280;45734;53.648;9.566;2023-02-28T00:03:11;53839.72;;;-145.06;100.00
59859;BME280;45734;53.648;9.566;2023-02-28T00:08:11;53776.94;;;-145.06;100.00
59859;BME280;45734;53.648;9.566;2023-02-28T00:13:13;53825.56;;;-145.06;100.00
59859;BME280;45734;53.648;9.566;2023-02-28T00:18:13;53831.63;;;-145.06;100.00
59859;BME280;45734;53.648;9.566;2023-02-28T00:23:13;53815.44;;;-145.06;100.00
59859;BME280;45734;53.648;9.566;2023-02-28T00:28:14;53805.31;;;-145.06;100.00
59859;BME280;45734;53.648;9.566;2023-02-28T00:33:14;53799.22;;;-145.06;100.00
59859;BME280;45734;53.648;9.566;2023-02-28T00:38:16;53795.19;;;-145.06;100.00
59859;BME280;45734;53.648;9.566;2023-02-28T00:43:16;53829.59;;;-145.06;100.00
59859;BME280;45734;53.648;9.566;2023-02-28T00:48:16;53831.63;;;-145.06;100.00
59859;BME280;45734;53.648;9.566;2023-02-28T00:53:17;53823.53;;;-145.06;100.00
59859;BME280;45734;53.648;9.566;2023-02-28T00:58:18;53823.53;;;-145.06;100.00
59859;BME280;45734;53.648;9.566;2023-02-28T01:03:20;53833.66;;;-145.06;100.00
59859;BME280;45734;53.648;9.566;2023-02-28T01:08:21;53799.22;;;-145.06;100.00
59859;BME280;45734;53.648;9.566;2023-02-28T01:13:22;53855.94;;;-145.06;100.00
59859;BME280;45734;53.648;9.566;2023-02-28T01:18:23;53821.50;;;-145.06;100.00
59859;BME280;45734;53.648;9.566;2023-02-28T01:23:24;53783.03;;;-145.06;100.00
59859;BME280;45734;53.648;9.566;2023-02-28T01:28:24;53825.56;;;-145.06;100.00
59859;BME280;45734;53.648;9.566;2023-02-28T01:33:25;53801.25;;;-145.06;100.00
59859;BME280;45734;53.648;9.566;2023-02-28T01:38:26;53805.31;;;-145.06;100.00
59859;BME280;45734;53.648;9.566;2023-02-28T01:43:31;53813.41;;;-145.06;100.00
59859;BME280;45734;53.648;9.566;2023-02-28T01:53:47;53795.19;;;-145.06;100.00
59859;BME280;45734;53.648;9.566;2023-02-28T01:58:53;53823.53;;;-145.06;100.00
59859;BME280;45734;53.648;9.566;2023-02-28T02:03:56;53803.28;;;-145.06;100.00
59859;BME280;45734;53.648;9.566;2023-02-28T02:08:57;53849.84;;;-145.06;100.00
59859;BME280;45734;53.648;9.566;2023-02-28T02:24:24;53831.63;;;-145.06;100.00
59859;BME280;45734;53.648;9.566;2023-02-28T02:35:13;53801.25;;;-145.06;100.00
59859;BME280;45734;53.648;9.566;2023-02-28T02:40:20;53823.53;;;-145.06;100.00
59859;BME280;45734;53.648;9.566;2023-02-28T02:45:26;53819.47;;;-145.06;100.00
59859;BME280;45734;53.648;9.566;2023-02-28T02:50:34;53855.94;;;-145.06;100.00
59859;BME280;45734;53.648;9.566;2023-02-28T02:55:39;53803.28;;;-145.06;100.00
59859;BME280;45734;53.648;9.566;2023-02-28T03:00:46;53833.66;;;-145.06;100.00
59859;BME280;45734;53.648;9.566;2023-02-28T03:05:49;53805.31;;;-145.06;100.00
59859;BME280;45734;53.648;9.566;2023-02-28T03:10:51;53805.31;;;-145.06;100.00
59859;BME280;45734;53.648;9.566;2023-02-28T03:16:22;53817.47;;;-145.06;100.00
59859;BME280;45734;53.648;9.566;2023-02-28T03:26:26;53839.72;;;-145.06;100.00
59859;BME280;45734;53.648;9.566;2023-02-28T03:31:31;53791.13;;;-145.06;100.00
59859;BME280;45734;53.648;9.566;2023-02-28T03:36:34;53827.59;;;-145.06;100.00
59859;BME280;45734;53.648;9.566;2023-02-28T03:41:48;53799.22;;;-145.06;100.00
59859;BME280;45734;53.648;9.566;2023-02-28T03:47:08;53791.13;;;-145.06;100.00
59859;BME280;45734;53.648;9.566;2023-02-28T03:52:09;53819.47;;;-145.06;100.00
59859;BME280;45734;53.648;9.566;2023-02-28T03:57:33;53795.19;;;-145.06;100.00
59859;BME280;45734;53.648;9.566;2023-02-28T04:02:38;53781.00;;;-145.06;100.00
59859;BME280;45734;53.648;9.566;2023-02-28T04:07:39;53803.28;;;-145.06;100.00
59859;BME280;45734;53.648;9.566;2023-02-28T04:12:39;53781.00;;;-145.06;100.00
59859;BME280;45734;53.648;9.566;2023-02-28T04:17:40;53847.84;;;-145.06;100.00
59859;BME280;45734;53.648;9.566;2023-02-28T04:22:40;53803.28;;;-145.06;100.00
59859;BME280;45734;53.648;9.566;2023-02-28T04:27:40;53829.59;;;-145.06;100.00
59859;BME280;45734;53.648;9.566;2023-02-28T04:32:40;53797.22;;;-145.06;100.00
59859;BME280;45734;53.648;9.566;2023-02-28T04:37:41;53825.56;;;-145.06;100.00
59859;BME280;45734;53.648;9.566;2023-02-28T04:42:41;53807.31;;;-145.06;100.00
59859;BME280;45734;53.648;9.566;2023-02-28T04:47:41;53807.31;;;-145.06;100.00
59859;BME280;45734;53.648;9.566;2023-02-28T04:52:42;53847.84;;;-145.06;100.00
59859;BME280;45734;53.648;9.566;2023-02-28T04:57:42;53801.25;;;-145.06;100.00
59859;BME280;45734;53.648;9.566;2023-02-28T05:02:42;53781.00;;;-145.06;100.00
59859;BME280;45734;53.648;9.566;2023-02-28T05:07:43;53799.22;;;-145.06;100.00
59859;BME280;45734;53.648;9.566;2023-02-28T05:12:43;53789.09;;;-145.06;100.00
59859;BME280;45734;53.648;9.566;2023-02-28T05:17:43;53813.41;;;-145.06;100.00
59859;BME280;45734;53.648;9.566;2023-02-28T05:22:47;53845.81;;;-145.06;100.00
59859;BME280;45734;53.648;9.566;2023-02-28T05:27:47;53837.72;;;-145.06;100.00
59859;BME280;45734;53.648;9.566;2023-02-28T05:32:50;53831.63;;;-145.06;100.00
59859;BME280;45734;53.648;9.566;2023-02-28T05:37:51;53855.94;;;-145.06;100.00
59859;BME280;45734;53.648;9.566;2023-02-28T05:42:51;53819.47;;;-145.06;100.00
59859;BME280;45734;53.648;9.566;2023-02-28T05:47:55;53819.47;;;-145.06;100.00
59859;BME280;45734;53.648;9.566;2023-02-28T05:52:55;53833.66;;;-145.06;100.00
59859;BME280;45734;53.648;9.566;2023-02-28T05:57:55;53819.47;;;-145.06;100.00
59859;BME280;45734;53.648;9.566;2023-02-28T06:02:56;53843.78;;;-145.06;100.00
59859;BME280;45734;53.648;9.566;2023-02-28T06:07:59;53815.44;;;-145.06;100.00
59859;BME280;45734;53.648;9.566;2023-02-28T06:13:01;53884.28;;;-145.06;100.00
59859;BME280;45734;53.648;9.566;2023-02-28T06:18:03;53827.59;;;-145.06;100.00
59859;BME280;45734;53.648;9.566;2023-02-28T06:23:04;53833.66;;;-145.06;100.00
59859;BME280;45734;53.648;9.566;2023-02-28T06:28:04;53811.38;;;-145.06;100.00
59859;BME280;45734;53.648;9.566;2023-02-28T06:33:05;53821.50;;;-145.06;100.00
59859;BME280;45734;53.648;9.566;2023-02-28T06:38:05;53772.91;;;-145.06;100.00
59859;BME280;45734;53.648;9.566;2023-02-28T06:43:05;53795.19;;;-145.06;100.00
59859;BME280;45734;53.648;9.566;2023-02-28T06:48:06;53752.66;;;-145.06;100.00
59859;BME280;45734;53.648;9.566;2023-02-28T06:53:06;53781.00;;;-145.06;100.00
59859;BME280;45734;53.648;9.566;2023-02-28T06:58:06;53740.50;;;-145.06;100.00
59859;BME280;45734;53.648;9.566;2023-02-28T07:03:14;53702.03;;;-145.06;100.00
59859;BME280;45734;53.648;9.566;2023-02-28T07:08:15;53681.78;;;-145.06;100.00
59859;BME280;45734;53.648;9.566;2023-02-28T07:13:15;53708.09;;;-145.06;100.00
59859;BME280;45734;53.648;9.566;2023-02-28T07:18:16;53673.69;;;-145.06;95.14
59859;BME280;45734;53.648;9.566;2023-02-28T07:23:16;53693.94;;;-145.06;96.74
59859;BME280;45734;53.648;9.566;2023-02-28T07:28:17;53689.88;;;-145.06;88.52
59859;BME280;45734;53.648;9.566;2023-02-28T07:33:17;53661.53;;;-145.06;84.16
59859;BME280;45734;53.648;9.566;2023-02-28T07:38:17;53649.38;;;-145.06;79.64
59859;BME280;45734;53.648;9.566;2023-02-28T07:43:18;53697.97;;;-145.06;75.05
59859;BME280;45734;53.648;9.566;2023-02-28T07:48:19;53661.53;;;-145.06;71.98
59859;BME280;45734;53.648;9.566;2023-02-28T07:53:20;53667.59;;;-145.06;68.32
59859;BME280;45734;53.648;9.566;2023-02-28T07:58:21;53625.06;;;-145.06;63.93
59859;BME280;45734;53.648;9.566;2023-02-28T08:03:34;53643.31;;;-145.06;50.69
59859;BME280;45734;53.648;9.566;2023-02-28T08:08:36;53669.63;;;-145.06;52.46
59859;BME280;45734;53.648;9.566;2023-02-28T08:13:37;53643.31;;;-145.06;49.11
59859;BME280;45734;53.648;9.566;2023-02-28T08:18:37;53631.16;;;-145.06;48.17
59859;BME280;45734;53.648;9.566;2023-02-28T08:23:38;53645.31;;;-145.06;48.16
59859;BME280;45734;53.648;9.566;2023-02-28T08:28:38;53669.63;;;-145.06;48.10
59859;BME280;45734;53.648;9.566;2023-02-28T08:33:40;53653.44;;;-145.06;48.01
59859;BME280;45734;53.648;9.566;2023-02-28T08:38:40;53641.28;;;-145.06;46.86
59859;BME280;45734;53.648;9.566;2023-02-28T08:43:41;53629.13;;;-145.06;46.89
59859;BME280;45734;53.648;9.566;2023-02-28T08:48:41;53683.81;;;-145.06;48.41
59859;BME280;45734;53.648;9.566;2023-02-28T08:53:41;53645.31;;;-145.06;48.40
59859;BME280;45734;53.648;9.566;2023-02-28T08:58:42;53629.13;;;-145.06;48.82
59859;BME280;45734;53.648;9.566;2023-02-28T09:03:44;53655.44;;;-145.06;47.81
59859;BME280;45734;53.648;9.566;2023-02-28T09:08:45;53641.28;;;-145.06;47.26
59859;BME280;45734;53.648;9.566;2023-02-28T09:13:46;53695.94;;;-145.06;48.78
59859;BME280;45734;53.648;9.566;2023-02-28T09:18:47;53685.81;;;-145.06;48.90
59859;BME280;45734;53.648;9.566;2023-02-28T09:23:49;53673.69;;;-145.06;49.30
59859;BME280;45734;53.648;9.566;2023-02-28T09:28:51;53693.94;;;-145.06;48.43
59859;BME280;45734;53.648;9.566;2023-02-28T09:33:53;53673.69;;;-145.06;49.15
59859;BME280;45734;53.648;9.566;2023-02-28T09:38:53;53647.34;;;-145.06;48.01
59859;BME280;45734;53.648;9.566;2023-02-28T09:43:56;53681.78;;;-145.06;49.32
59859;BME280;45734;53.648;9.566;2023-02-28T09:49:02;53706.06;;;-145.06;48.72
59859;BME280;45734;53.648;9.566;2023-02-28T09:54:04;53689.88;;;-145.06;50.93
59859;BME280;45734;53.648;9.566;2023-02-28T09:59:18;53663.56;;;-145.06;48.87
59859;BME280;45734;53.648;9.566;2023-02-28T10:09:40;53728.34;;;-145.06;48.31
59859;BME280;45734;53.648;9.566;2023-02-28T10:14:44;53718.22;;;-145.06;49.29
59859;BME280;45734;53.648;9.566;2023-02-28T10:25:26;53724.31;;;-145.06;51.00
59859;BME280;45734;53.648;9.566;2023-02-28T10:30:27;53730.38;;;-145.06;50.13
59859;BME280;45734;53.648;9.566;2023-02-28T10:35:28;53720.25;;;-145.06;49.49
59859;BME280;45734;53.648;9.566;2023-02-28T10:40:33;53720.25;;;-145.06;50.64
59859;BME280;45734;53.648;9.566;2023-02-28T10:45:35;53750.63;;;-145.06;50.23
59859;BME280;45734;53.648;9.566;2023-02-28T10:50:43;53746.56;;;-145.06;51.38
59859;BME280;45734;53.648;9.566;2023-02-28T10:55:44;53728.34;;;-145.06;50.78
59859;BME280;45734;53.648;9.566;2023-02-28T11:00:45;53760.75;;;-145.06;50.49
59859;BME280;45734;53.648;9.566;2023-02-28T11:05:46;53730.38;;;-145.06;52.27
59859;BME280;45734;53.648;9.566;2023-02-28T11:10:55;53774.94;;;-145.06;51.76
59859;BME280;45734;53.648;9.566;2023-02-28T11:15:59;53760.75;;;-145.06;51.71
59859;BME280;45734;53.648;9.566;2023-02-28T11:21:02;53742.53;;;-145.06;48.95
59859;BME280;45734;53.648;9.566;2023-02-28T11:26:04;53762.78;;;-145.06;51.16
59859;BME280;45734;53.648;9.566;2023-02-28T11:41:38;53766.81;;;-145.06;51.21
59859;BME280;45734;53.648;9.566;2023-02-28T11:46:52;53774.94;;;-145.06;52.71
59859;BME280;45734;53.648;9.566;2023-02-28T11:52:36;53748.59;;;-145.06;53.16
59859;BME280;45734;53.648;9.566;2023-02-28T11:57:24;53774.94;;;-145.06;51.84
59859;BME280;45734;53.648;9.566;2023-02-28T12:02:36;53750.63;;;-145.06;50.67
59859;BME280;45734;53.648;9.566;2023-02-28T12:08:00;53758.72;;;-145.06;51.11
59859;BME280;45734;53.648;9.566;2023-02-28T12:13:27;53797.22;;;-145.06;50.69
59859;BME280;45734;53.648;9.566;2023-02-28T12:23:54;53772.91;;;-145.06;51.19
59859;BME280;45734;53.648;9.566;2023-02-28T12:29:30;53746.56;;;-145.06;50.33
59859;BME280;45734;53.648;9.566;2023-02-28T12:34:39;53770.88;;;-145.06;50.43
59859;BME280;45734;53.648;9.566;2023-02-28T12:39:49;53730.38;;;-145.06;52.80
59859;BME280;45734;53.648;9.566;2023-02-28T12:44:59;53762.78;;;-145.06;51.19
59859;BME280;45734;53.648;9.566;2023-02-28T12:50:09;53766.81;;;-145.06;49.08
59859;BME280;45734;53.648;9.566;2023-02-28T12:55:27;53776.94;;;-145.06;49.24
59859;BME280;45734;53.648;9.566;2023-02-28T13:00:36;53762.78;;;-145.06;49.08
59859;BME280;45734;53.648;9.566;2023-02-28T13:11:00;53778.97;;;-145.06;49.50
59859;BME280;45734;53.648;9.566;2023-02-28T13:16:04;53754.69;;;-145.06;48.09
59859;BME280;45734;53.648;9.566;2023-02-28T13:21:09;53758.72;;;-145.06;47.65
59859;BME280;45734;53.648;9.566;2023-02-28T13:26:10;53768.84;;;-145.06;47.62
59859;BME280;45734;53.648;9.566;2023-02-28T13:31:13;53797.22;;;-145.06;45.91
59859;BME280;45734;53.648;9.566;2023-02-28T13:46:35;53768.84;;;-145.06;47.91
59859;BME280;45734;53.648;9.566;2023-02-28T13:51:44;53738.47;;;-145.06;47.83
59859;BME280;45734;53.648;9.566;2023-02-28T13:57:11;53750.63;;;-145.06;47.56
59859;BME280;45734;53.648;9.566;2023-02-28T14:03:07;53752.66;;;-145.06;47.42
59859;BME280;45734;53.648;9.566;2023-02-28T14:07:49;53744.56;;;-145.06;46.40
59859;BME280;45734;53.648;9.566;2023-02-28T14:17:58;53726.31;;;-145.06;49.92
59859;BME280;45734;53.648;9.566;2023-02-28T14:23:16;53774.94;;;-145.06;48.62
59859;BME280;45734;53.648;9.566;2023-02-28T14:38:51;53742.53;;;-145.06;53.10
59859;BME280;45734;53.648;9.566;2023-02-28T14:43:59;53795.19;;;-145.06;50.72
59859;BME280;45734;53.648;9.566;2023-02-28T14:49:00;53754.69;;;-145.06;49.61
59859;BME280;45734;53.648;9.566;2023-02-28T14:54:01;53748.59;;;-145.06;50.47
59859;BME280;45734;53.648;9.566;2023-02-28T14:59:03;53783.03;;;-145.06;51.23
59859;BME280;45734;53.648;9.566;2023-02-28T15:04:05;53734.44;;;-145.06;51.34
59859;BME280;45734;53.648;9.566;2023-02-28T15:09:16;53742.53;;;-145.06;51.23
59859;BME280;45734;53.648;9.566;2023-02-28T15:14:19;53803.28;;;-145.06;51.37
59859;BME280;45734;53.648;9.566;2023-02-28T15:19:24;53752.66;;;-145.06;52.00
59859;BME280;45734;53.648;9.566;2023-02-28T15:24:46;53783.03;;;-145.06;50.85
59859;BME280;45734;53.648;9.566;2023-02-28T15:29:51;53728.34;;;-145.06;56.32
59859;BME280;45734;53.648;9.566;2023-02-28T15:34:54;53746.56;;;-145.06;55.91
59859;BME280;45734;53.648;9.566;2023-02-28T15:39:57;53756.69;;;-145.06;55.10
59859;BME280;45734;53.648;9.566;2023-02-28T15:44:58;53762.78;;;-145.06;55.99
59859;BME280;45734;53.648;9.566;2023-02-28T15:50:09;53762.78;;;-145.06;57.87
59859;BME280;45734;53.648;9.566;2023-02-28T15:55:27;53758.72;;;-145.06;58.39
59859;BME280;45734;53.648;9.566;2023-02-28T16:00:30;53768.84;;;-145.06;60.54
59859;BME280;45734;53.648;9.566;2023-02-28T16:05:32;53758.72;;;-145.06;60.46
59859;BME280;45734;53.648;9.566;2023-02-28T16:10:33;53774.94;;;-145.06;61.34
59859;BME280;45734;53.648;9.566;2023-02-28T16:15:38;53776.94;;;-145.06;63.16
59859;BME280;45734;53.648;9.566;2023-02-28T16:20:42;53730.38;;;-145.06;63.61
59859;BME280;45734;53.648;9.566;2023-02-28T16:25:44;53750.63;;;-145.06;64.22
59859;BME280;45734;53.648;9.566;2023-02-28T16:30:46;53809.34;;;-145.06;64.90
59859;BME280;45734;53.648;9.566;2023-02-28T16:35:46;53770.88;;;-145.06;66.47
59859;BME280;45734;53.648;9.566;2023-02-28T16:40:49;53770.88;;;-145.06;67.55
59859;BME280;45734;53.648;9.566;2023-02-28T16:45:55;53774.94;;;-145.06;69.47
59859;BME280;45734;53.648;9.566;2023-02-28T16:50:58;53756.69;;;-145.06;73.30
59859;BME280;45734;53.648;9.566;2023-02-28T16:55:58;53787.06;;;-145.06;74.08
59859;BME280;45734;53.648;9.566;2023-02-28T17:00:58;53738.47;;;-145.06;74.59
59859;BME280;45734;53.648;9.566;2023-02-28T17:05:59;53787.06;;;-145.06;76.85
59859;BME280;45734;53.648;9.566;2023-02-28T17:10:59;53766.81;;;-145.06;80.71
59859;BME280;45734;53.648;9.566;2023-02-28T17:16:01;53781.00;;;-145.06;91.20
59859;BME280;45734;53.648;9.566;2023-02-28T17:21:01;53774.94;;;-145.06;99.29
59859;BME280;45734;53.648;9.566;2023-02-28T17:26:02;53791.13;;;-145.06;100.00
59859;BME280;45734;53.648;9.566;2023-02-28T17:31:04;53752.66;;;-145.06;100.00
59859;BME280;45734;53.648;9.566;2023-02-28T17:36:05;53795.19;;;-145.06;100.00
59859;BME280;45734;53.648;9.566;2023-02-28T17:41:06;53776.94;;;-145.06;100.00
59859;BME280;45734;53.648;9.566;2023-02-28T17:46:20;53803.28;;;-145.06;100.00
59859;BME280;45734;53.648;9.566;2023-02-28T17:51:23;53756.69;;;-145.06;100.00
59859;BME280;45734;53.648;9.566;2023-02-28T17:56:26;53768.84;;;-145.06;100.00
59859;BME280;45734;53.648;9.566;2023-02-28T18:01:26;53823.53;;;-145.06;100.00
59859;BME280;45734;53.648;9.566;2023-02-28T18:06:37;53793.16;;;-145.06;100.00
59859;BME280;45734;53.648;9.566;2023-02-28T18:11:46;53754.69;;;-145.06;100.00
59859;BME280;45734;53.648;9.566;2023-02-28T18:16:48;53807.31;;;-145.06;100.00
59859;BME280;45734;53.648;9.566;2023-02-28T18:21:51;53748.59;;;-145.06;100.00
59859;BME280;45734;53.648;9.566;2023-02-28T18:26:51;53783.03;;;-145.06;100.00
59859;BME280;45734;53.648;9.566;2023-02-28T18:31:54;53803.28;;;-145.06;100.00
59859;BME280;45734;53.648;9.566;2023-02-28T18:36:55;53754.69;;;-145.06;100.00
59859;BME280;45734;53.648;9.566;2023-02-28T18:41:57;53778.97;;;-145.06;100.00
59859;BME280;45734;53.648;9.566;2023-02-28T18:46:57;53795.19;;;-145.06;100.00
59859;BME280;45734;53.648;9.566;2023-02-28T18:51:57;53770.88;;;-145.06;100.00
59859;BME280;45734;53.648;9.566;2023-02-28T18:56:58;53803.28;;;-145.06;100.00
59859;BME280;45734;53.648;9.566;2023-02-28T19:01:58;53778.97;;;-145.06;100.00
59859;BME280;45734;53.648;9.566;2023-02-28T19:06:58;53797.22;;;-145.06;100.00
59859;BME280;45734;53.648;9.566;2023-02-28T19:11:58;53758.72;;;-145.06;100.00
59859;BME280;45734;53.648;9.566;2023-02-28T19:16:59;53778.97;;;-145.06;100.00
59859;BME280;45734;53.648;9.566;2023-02-28T19:21:59;53797.22;;;-145.06;100.00
59859;BME280;45734;53.648;9.566;2023-02-28T19:26:59;53774.94;;;-145.06;100.00
59859;BME280;45734;53.648;9.566;2023-02-28T19:32:00;53799.22;;;-145.06;100.00
59859;BME280;45734;53.648;9.566;2023-02-28T19:37:00;53793.16;;;-145.06;100.00
59859;BME280;45734;53.648;9.566;2023-02-28T19:42:00;53776.94;;;-145.06;100.00
59859;BME280;45734;53.648;9.566;2023-02-28T19:47:01;53797.22;;;-145.06;100.00
59859;BME280;45734;53.648;9.566;2023-02-28T19:52:03;53762.78;;;-145.06;100.00
59859;BME280;45734;53.648;9.566;2023-02-28T19:57:03;53742.53;;;-145.06;100.00
59859;BME280;45734;53.648;9.566;2023-02-28T20:02:04;53819.47;;;-145.06;100.00
59859;BME280;45734;53.648;9.566;2023-02-28T20:07:05;53807.31;;;-145.06;100.00
59859;BME280;45734;53.648;9.566;2023-02-28T20:12:06;53768.84;;;-145.06;100.00
59859;BME280;45734;53.648;9.566;2023-02-28T20:17:06;53807.31;;;-145.06;100.00
59859;BME280;45734;53.648;9.566;2023-02-28T20:22:06;53813.41;;;-145.06;100.00
59859;BME280;45734;53.648;9.566;2023-02-28T20:27:09;53795.19;;;-145.06;100.00
59859;BME280;45734;53.648;9.566;2023-02-28T20:32:09;53785.06;;;-145.06;100.00
59859;BME280;45734;53.648;9.566;2023-02-28T20:37:09;53795.19;;;-145.06;100.00
59859;BME280;45734;53.648;9.566;2023-02-28T20:42:10;53750.63;;;-145.06;100.00
59859;BME280;45734;53.648;9.566;2023-02-28T20:47:10;53803.28;;;-145.06;100.00
59859;BME280;45734;53.648;9.566;2023-02-28T20:52:11;53785.06;;;-145.06;100.00
59859;BME280;45734;53.648;9.566;2023-02-28T20:57:11;53815.44;;;-145.06;100.00
59859;BME280;45734;53.648;9.566;2023-02-28T21:02:14;53795.19;;;-145.06;100.00
59859;BME280;45734;53.648;9.566;2023-02-28T21:07:15;53774.94;;;-145.06;100.00
59859;BME280;45734;53.648;9.566;2023-02-28T21:12:16;53762.78;;;-145.06;100.00
59859;BME280;45734;53.648;9.566;2023-02-28T21:17:16;53783.03;;;-145.06;100.00
59859;BME280;45734;53.648;9.566;2023-02-28T21:22:16;53799.22;;;-145.06;100.00
59859;BME280;45734;53.648;9.566;2023-02-28T21:27:17;53789.09;;;-145.06;100.00
59859;BME280;45734;53.648;9.566;2023-02-28T21:32:18;53843.78;;;-145.06;100.00
59859;BME280;45734;53.648;9.566;2023-02-28T21:37:18;53835.69;;;-145.06;100.00
59859;BME280;45734;53.648;9.566;2023-02-28T21:42:19;53783.03;;;-145.06;100.00
59859;BME280;45734;53.648;9.566;2023-02-28T21:47:19;53785.06;;;-145.06;100.00
59859;BME280;45734;53.648;9.566;2023-02-28T21:52:19;53770.88;;;-145.06;100.00
59859;BME280;45734;53.648;9.566;2023-02-28T21:57:21;53783.03;;;-145.06;100.00
59859;BME280;45734;53.648;9.566;2023-02-28T22:02:21;53778.97;;;-145.06;100.00
59859;BME280;45734;53.648;9.566;2023-02-28T22:07:21;53781.00;;;-145.06;100.00
59859;BME280;45734;53.648;9.566;2023-02-28T22:12:21;53789.09;;;-145.06;100.00
59859;BME280;45734;53.648;9.566;2023-02-28T22:17:22;53774.94;;;-145.06;100.00
59859;BME280;45734;53.648;9.566;2023-02-28T22:22:22;53795.19;;;-145.06;100.00
59859;BME280;45734;53.648;9.566;2023-02-28T22:27:22;53785.06;;;-145.06;100.00
59859;BME280;45734;53.648;9.566;2023-02-28T22:32:23;53783.03;;;-145.06;100.00
59859;BME280;45734;53.648;9.566;2023-02-28T22:37:23;53819.47;;;-145.06;100.00
59859;BME280;45734;53.648;9.566;2023-02-28T22:42:23;53803.28;;;-145.06;100.00
59859;BME280;45734;53.648;9.566;2023-02-28T22:47:24;53770.88;;;-145.06;100.00
59859;BME280;45734;53.648;9.566;2023-02-28T22:52:25;53801.25;;;-145.06;100.00
59859;BME280;45734;53.648;9.566;2023-02-28T22:57:25;53821.50;;;-145.06;100.00
59859;BME280;45734;53.648;9.566;2023-02-28T23:02:26;53774.94;;;-145.06;100.00
59859;BME280;45734;53.648;9.566;2023-02-28T23:07:26;53799.22;;;-145.06;100.00
59859;BME280;45734;53.648;9.566;2023-02-28T23:12:28;53793.16;;;-145.06;100.00
59859;BME280;45734;53.648;9.566;2023-02-28T23:17:30;53807.31;;;-145.06;100.00
59859;BME280;45734;53.648;9.566;2023-02-28T23:22:30;53829.59;;;-145.06;100.00
59859;BME280;45734;53.648;9.566;2023-02-28T23:27:31;53776.94;;;-145.06;100.00
59859;BME280;45734;53.648;9.566;2023-02-28T23:32:31;53821.50;;;-145.06;100.00
59859;BME280;45734;53.648;9.566;2023-02-28T23:37:31;53778.97;;;-145.06;100.00
59859;BME280;45734;53.648;9.566;2023-02-28T23:42:32;53811.38;;;-145.06;100.00
59859;BME280;45734;53.648;9.566;2023-02-28T23:47:33;53793.16;;;-145.06;100.00
59859;BME280;45734;53.648;9.566;2023-02-28T23:52:33;53789.09;;;-145.06;100.00
59859;BME280;45734;53.648;9.566;2023-02-28T23:57:34;53791.13;;;-145.06;100.00
